Time;durP1;ratioP1;P1;durP2;ratioP2;P2;SDS_P1;SDS_P2;PMS_P1;PMS_P2;Temp;Humidity;BMP_temperature;BMP_pressure;BME280_temperature;BME280_humidity;BME280_pressure;Samples;Min_cycle;Max_cycle;Signal;HPM_P1;HPM_P2
2021/08/20 00:01:43;;;;;;;0.77;0.77;;;;;;;20.77;63.60;98883.63;5128812;27;41166;-82
2021/08/20 00:04:12;;;;;;;0.97;0.90;;;;;;;20.79;63.92;98880.78;5112263;27;39091;-82
2021/08/20 00:06:40;;;;;;;0.60;0.60;;;;;;;20.79;63.69;98883.47;5128627;27;40695;-85
2021/08/20 00:09:09;;;;;;;0.80;0.80;;;;;;;20.76;64.23;98871.19;5108657;27;42670;-82
2021/08/20 00:11:37;;;;;;;0.53;0.53;;;;;;;20.75;64.19;98871.34;5112037;27;42622;-82
2021/08/20 00:14:05;;;;;;;0.70;0.70;;;;;;;20.78;64.12;98879.06;5129740;27;40995;-83
2021/08/20 00:16:35;;;;;;;0.57;0.57;;;;;;;20.78;63.90;98884.47;5112969;27;40622;-83
2021/08/20 00:19:02;;;;;;;0.80;0.80;;;;;;;20.76;63.84;98884.66;5127604;27;42075;-80
2021/08/20 00:21:32;;;;;;;0.80;0.80;;;;;;;20.75;63.95;98879.41;5129741;27;42620;-81
2021/08/20 00:23:59;;;;;;;0.60;0.60;;;;;;;20.73;63.76;98876.03;5125767;27;40237;-81
2021/08/20 00:26:27;;;;;;;0.50;0.50;;;;;;;20.75;63.88;98876.72;5111170;27;41114;-80
2021/08/20 00:29:01;;;;;;;0.80;0.80;;;;;;;20.75;64.06;98876.72;5112180;27;42830;-80
2021/08/20 00:31:30;;;;;;;0.80;0.60;;;;;;;20.61;64.01;98856.63;5141478;27;42313;-81
2021/08/20 00:34:00;;;;;;;0.57;0.57;;;;;;;20.73;63.49;98874.19;5147290;27;39734;-82
2021/08/20 00:36:28;;;;;;;0.60;0.60;;;;;;;20.71;63.72;98880.72;5129886;27;41021;-80
2021/08/20 00:38:58;;;;;;;0.77;0.73;;;;;;;20.71;63.80;98878.03;5131615;27;43024;-81
2021/08/20 00:41:26;;;;;;;0.70;0.70;;;;;;;20.70;63.63;98879.88;5130534;27;41114;-79
2021/08/20 00:43:53;;;;;;;0.60;0.60;;;;;;;20.70;63.75;98884.44;5131885;27;40122;-80
2021/08/20 00:46:21;;;;;;;1.07;0.77;;;;;;;20.60;63.44;98864.84;5130947;27;41340;-83
2021/08/20 00:48:48;;;;;;;0.93;0.53;;;;;;;20.66;63.67;98877.66;5114451;27;43005;-81
2021/08/20 00:51:20;;;;;;;0.53;0.50;;;;;;;20.66;63.99;98877.66;5110883;27;41333;-80
2021/08/20 00:53:49;;;;;;;0.80;0.60;;;;;;;20.62;64.10;98870.94;5113234;27;40257;-80
2021/08/20 00:56:19;;;;;;;0.60;0.60;;;;;;;20.62;64.33;98870.94;5107216;27;40781;-82
2021/08/20 00:58:48;;;;;;;0.70;0.70;;;;;;;20.60;64.08;98872.94;5128626;27;42099;-83
2021/08/20 01:01:16;;;;;;;0.70;0.50;;;;;;;20.55;64.11;98876.09;5129806;27;42826;-83
2021/08/20 01:03:44;;;;;;;0.77;0.60;;;;;;;20.56;64.63;98880.47;5129044;27;38898;-82
2021/08/20 01:06:11;;;;;;;0.50;0.50;;;;;;;20.44;64.59;98853.00;5109964;27;42066;-83
2021/08/20 01:08:40;;;;;;;0.90;0.80;;;;;;;20.51;64.75;98869.34;5106547;28;42156;-84
2021/08/20 01:11:11;;;;;;;0.70;0.70;;;;;;;20.49;64.63;98859.75;5107858;28;42464;-82
2021/08/20 01:13:43;;;;;;;0.60;0.60;;;;;;;20.50;64.64;98864.13;5091208;28;39020;-83
2021/08/20 01:16:11;;;;;;;0.80;0.80;;;;;;;20.47;64.75;98867.97;5106832;28;42017;-83
2021/08/20 01:18:41;;;;;;;0.73;0.70;;;;;;;20.46;64.57;98862.75;5127621;27;42850;-82
2021/08/20 01:21:12;;;;;;;0.80;0.80;;;;;;;20.42;64.81;98860.38;5110901;27;41658;-83
2021/08/20 01:23:40;;;;;;;0.70;0.70;;;;;;;20.39;65.05;98855.31;5109023;27;40361;-83
2021/08/20 01:26:11;;;;;;;0.70;0.70;;;;;;;20.30;65.06;98836.53;5128255;27;41654;-82
2021/08/20 01:28:39;;;;;;;0.50;0.50;;;;;;;20.33;64.78;98841.63;5110989;27;42063;-82
2021/08/20 01:31:08;;;;;;;0.67;0.67;;;;;;;20.41;65.05;98853.28;5127907;27;42575;-82
2021/08/20 01:33:38;;;;;;;0.60;0.60;;;;;;;20.40;64.73;98856.13;5108222;28;39778;-83
2021/08/20 01:36:08;;;;;;;0.60;0.60;;;;;;;20.40;64.93;98851.59;5108255;28;41778;-81
2021/08/20 01:38:46;;;;;;;0.50;0.50;;;;;;;20.33;65.18;98839.78;5091271;28;41927;-80
2021/08/20 01:41:16;;;;;;;0.80;0.70;;;;;;;20.38;65.13;98845.56;5104945;28;41261;-84
2021/08/20 01:43:45;;;;;;;0.90;0.50;;;;;;;20.38;65.30;98852.78;5125493;27;39205;-83
2021/08/20 01:46:12;;;;;;;0.60;0.60;;;;;;;20.39;64.81;98849.94;5097333;27;40919;-83
2021/08/20 01:48:51;;;;;;;0.60;0.60;;;;;;;20.40;65.04;98845.38;5113747;27;41949;-82
2021/08/20 01:51:19;;;;;;;0.63;0.63;;;;;;;20.33;64.76;98839.78;5131607;27;42510;-80
2021/08/20 01:53:49;;;;;;;0.80;0.67;;;;;;;20.29;64.69;98835.69;5132278;27;40167;-80
2021/08/20 01:56:20;;;;;;;0.40;0.40;;;;;;;20.39;64.90;98839.19;5130378;27;42118;-81
2021/08/20 01:58:50;;;;;;;0.70;0.70;;;;;;;20.38;64.84;98842.88;5114638;27;42063;-81
2021/08/20 02:01:17;;;;;;;0.50;0.50;;;;;;;20.38;64.52;98842.88;5114315;27;41394;-80
2021/08/20 02:03:45;;;;;;;0.63;0.60;;;;;;;20.37;64.65;98851.94;5130408;27;40133;-80
2021/08/20 02:06:14;;;;;;;0.53;0.53;;;;;;;20.36;64.63;98842.19;5132702;27;42055;-83
2021/08/20 02:08:44;;;;;;;0.60;0.60;;;;;;;20.35;64.69;98848.56;5129623;27;43836;-84
2021/08/20 02:11:12;;;;;;;0.70;0.70;;;;;;;20.34;64.69;98846.84;5129493;27;42221;-82
2021/08/20 02:13:48;;;;;;;0.80;0.80;;;;;;;20.33;65.06;98850.53;5131424;27;39696;-82
2021/08/20 02:16:16;;;;;;;0.40;0.40;;;;;;;20.32;64.85;98846.16;5131819;27;42066;-82
2021/08/20 02:18:44;;;;;;;0.87;0.80;;;;;;;20.23;64.82;98827.44;5129090;27;43011;-82
2021/08/20 02:21:12;;;;;;;1.03;0.83;;;;;;;20.29;65.23;98842.91;5130560;27;41887;-82
2021/08/20 02:23:41;;;;;;;0.70;0.70;;;;;;;20.28;65.17;98842.06;5131307;27;41583;-83
2021/08/20 02:26:11;;;;;;;0.80;0.60;;;;;;;20.30;65.11;98844.63;5126126;27;41731;-82
2021/08/20 02:28:38;;;;;;;0.63;0.63;;;;;;;20.22;65.35;98842.72;5113631;27;41737;-83
2021/08/20 02:31:07;;;;;;;0.53;0.50;;;;;;;20.27;65.32;98839.56;5129562;27;42001;-82
2021/08/20 02:33:37;;;;;;;0.67;0.50;;;;;;;20.28;65.34;98849.28;5114790;27;40251;-82
2021/08/20 02:36:08;;;;;;;0.43;0.43;;;;;;;20.26;65.13;98843.25;5127182;27;41561;-85
2021/08/20 02:38:36;;;;;;;1.17;0.73;;;;;;;20.10;65.14;98817.09;5130983;27;43223;-81
2021/08/20 02:41:04;;;;;;;0.47;0.47;;;;;;;20.28;65.40;98852.84;5114026;27;40922;-81
2021/08/20 02:43:33;;;;;;;0.80;0.73;;;;;;;20.26;65.45;98848.63;5114334;27;38767;-80
2021/08/20 02:46:01;;;;;;;0.73;0.60;;;;;;;20.22;65.43;98848.09;5111063;27;40745;-81
2021/08/20 02:48:30;;;;;;;0.60;0.60;;;;;;;20.24;65.33;98853.31;5113923;27;43009;-80
2021/08/20 02:50:58;;;;;;;0.53;0.53;;;;;;;20.24;65.38;98854.16;5131270;27;42065;-81
2021/08/20 02:53:30;;;;;;;0.40;0.40;;;;;;;20.15;65.30;98841.69;5130013;27;40164;-80
2021/08/20 02:55:58;;;;;;;0.50;0.50;;;;;;;20.24;65.35;98845.25;5115204;27;41736;-80
2021/08/20 02:58:41;;;;;;;0.40;0.40;;;;;;;20.21;65.52;98846.41;5113270;27;42113;-81
2021/08/20 03:01:08;;;;;;;0.40;0.40;;;;;;;20.12;65.17;98833.91;5131314;27;42525;-81
2021/08/20 03:03:37;;;;;;;0.50;0.50;;;;;;;20.19;65.36;98851.09;5130211;27;40115;-82
2021/08/20 03:06:13;;;;;;;0.50;0.50;;;;;;;20.19;65.46;98847.56;5131581;27;42167;-84
2021/08/20 03:09:17;;;;;;;0.50;0.50;;;;;;;20.16;65.27;98843.34;5126922;27;20546;-81
2021/08/20 03:11:45;;;;;;;0.57;0.57;;;;;;;20.16;65.30;98853.25;5141474;27;39814;-83
2021/08/20 03:14:13;;;;;;;0.70;0.70;;;;;;;20.13;65.69;98849.03;5126399;27;42466;-81
2021/08/20 03:16:43;;;;;;;0.60;0.60;;;;;;;19.95;65.66;98816.81;5126300;27;42909;-82
2021/08/20 03:19:11;;;;;;;0.73;0.60;;;;;;;20.08;65.82;98837.91;5108961;27;40882;-82
2021/08/20 03:21:42;;;;;;;0.37;0.37;;;;;;;20.06;65.90;98834.53;5108722;27;40456;-83
2021/08/20 03:24:26;;;;;;;0.70;0.70;;;;;;;20.11;66.07;98845.66;5169280;27;21023;-82
2021/08/20 03:27:08;;;;;;;1.17;1.07;;;;;;;20.10;66.30;98849.34;5106656;28;20572;-81
2021/08/20 03:29:51;;;;;;;1.40;1.20;;;;;;;20.09;66.15;98848.50;5148402;27;20573;-82
2021/08/20 03:32:40;;;;;;;1.10;0.77;;;;;;;19.99;66.47;98834.31;5148473;27;20539;-82
2021/08/20 03:35:24;;;;;;;0.70;0.50;;;;;;;20.08;66.54;98848.66;5148552;27;20557;-83
2021/08/20 03:38:07;;;;;;;0.60;0.60;;;;;;;20.09;66.45;98844.97;5106425;28;20521;-81
2021/08/20 03:40:52;;;;;;;0.73;0.73;;;;;;;20.09;66.55;98847.66;5107243;28;20586;-82
2021/08/20 03:43:39;;;;;;;0.70;0.60;;;;;;;20.05;66.07;98840.91;5147763;27;20555;-82
2021/08/20 03:46:27;;;;;;;0.43;0.43;;;;;;;20.09;66.55;98847.66;5105709;28;20570;-82
2021/08/20 03:49:12;;;;;;;0.67;0.60;;;;;;;20.08;66.18;98851.34;5119106;27;20562;-81
2021/08/20 03:51:55;;;;;;;0.57;0.40;;;;;;;20.01;66.36;98834.16;5168433;27;20577;-82
2021/08/20 03:54:43;;;;;;;0.73;0.73;;;;;;;20.06;66.02;98847.97;5106376;28;20564;-81
2021/08/20 03:57:30;;;;;;;0.60;0.57;;;;;;;19.97;66.44;98835.47;5168517;27;20551;-82
2021/08/20 04:00:14;;;;;;;0.60;0.60;;;;;;;20.07;65.96;98846.97;5142821;27;20515;-82
2021/08/20 04:03:00;;;;;;;0.57;0.57;;;;;;;20.07;66.11;98850.50;5148553;27;20572;-82
2021/08/20 04:05:44;;;;;;;0.57;0.57;;;;;;;20.10;66.35;98860.09;5106296;28;21014;-81
2021/08/20 04:08:30;;;;;;;0.60;0.50;;;;;;;20.08;66.20;98852.19;5160513;27;20574;-82
2021/08/20 04:11:49;;;;;;;0.60;0.60;;;;;;;20.14;66.02;98868.72;5147678;27;20533;-83
2021/08/20 04:14:43;;;;;;;0.60;0.50;;;;;;;20.06;66.07;98858.72;5181603;27;20563;-82
2021/08/20 04:17:25;;;;;;;0.73;0.60;;;;;;;20.15;66.26;98868.56;5168832;27;20557;-83
2021/08/20 04:20:12;;;;;;;0.50;0.50;;;;;;;20.16;66.54;98870.22;5106535;28;20916;-82
2021/08/20 04:22:58;;;;;;;0.77;0.60;;;;;;;20.16;66.79;98875.59;5147651;27;20571;-84
2021/08/20 04:25:41;;;;;;;1.60;0.80;;;;;;;20.16;67.18;98870.22;5148345;27;21123;-82
2021/08/20 04:28:41;;;;;;;0.60;0.60;;;;;;;20.16;66.93;98869.38;5119610;27;21091;-83
2021/08/20 04:31:33;;;;;;;0.67;0.63;;;;;;;20.14;67.34;98866.88;5147326;27;21084;-82
2021/08/20 04:34:26;;;;;;;0.70;0.70;;;;;;;20.16;67.25;98880.97;5169157;27;20567;-82
2021/08/20 04:37:23;;;;;;;1.07;0.97;;;;;;;20.14;67.37;98877.63;5168987;27;21052;-82
2021/08/20 04:40:13;;;;;;;0.60;0.60;;;;;;;20.13;67.57;98886.69;5168852;27;20547;-82
2021/08/20 04:43:26;;;;;;;0.63;0.63;;;;;;;20.07;67.71;98881.91;5106767;28;20566;-81
2021/08/20 04:46:24;;;;;;;0.60;0.60;;;;;;;20.00;67.82;98881.72;5114221;27;20564;-81
2021/08/20 04:49:28;;;;;;;0.77;0.77;;;;;;;19.71;67.94;98838.94;5106142;28;20564;-81
2021/08/20 04:52:38;;;;;;;0.70;0.70;;;;;;;19.92;68.35;98888.84;5106391;28;20582;-82
2021/08/20 04:55:55;;;;;;;0.80;0.80;;;;;;;19.86;69.17;98884.09;5107422;28;20606;-82
2021/08/20 04:58:38;;;;;;;0.60;0.60;;;;;;;19.85;69.08;98883.25;5106600;28;20552;-82
2021/08/20 05:01:50;;;;;;;0.73;0.73;;;;;;;19.74;69.23;98872.72;5148547;27;20555;-82
2021/08/20 05:05:08;;;;;;;0.60;0.60;;;;;;;19.85;69.88;98896.69;5169955;27;21012;-83
2021/08/20 05:08:09;;;;;;;0.67;0.67;;;;;;;19.78;69.65;98884.03;5231595;27;20527;-83
2021/08/20 05:11:10;;;;;;;0.90;0.80;;;;;;;19.80;69.87;98900.81;5232590;27;20528;-82
2021/08/20 05:14:10;;;;;;;0.60;0.60;;;;;;;19.64;70.27;98886.25;5106321;27;20524;-85
2021/08/20 05:17:17;;;;;;;0.53;0.50;;;;;;;19.59;70.29;98882.31;5170255;27;20573;-82
2021/08/20 05:20:14;;;;;;;1.90;0.73;;;;;;;19.62;70.61;98893.59;5105343;27;21390;-84
2021/08/20 05:23:11;;;;;;;0.90;0.90;;;;;;;19.60;71.58;98889.38;5179644;27;20524;-83
2021/08/20 05:26:11;;;;;;;0.60;0.60;;;;;;;19.55;72.32;98903.25;5224275;27;20522;-83
2021/08/20 05:29:08;;;;;;;1.00;0.73;;;;;;;19.54;71.99;98896.19;5127783;27;20529;-84
2021/08/20 05:31:50;;;;;;;0.70;0.67;;;;;;;19.58;71.57;98900.28;5095693;27;21335;-84
2021/08/20 05:34:32;;;;;;;0.87;0.87;;;;;;;19.59;71.79;98893.91;5189982;27;1346609;-83
2021/08/20 05:37:14;;;;;;;0.83;0.83;;;;;;;19.63;71.80;98906.03;5105573;28;20582;-82
2021/08/20 05:39:57;;;;;;;0.47;0.47;;;;;;;19.69;71.59;98905.41;5167370;27;21303;-85
2021/08/20 05:42:40;;;;;;;1.13;0.80;;;;;;;19.73;71.79;98912.19;5162504;27;20567;-84
2021/08/20 05:45:23;;;;;;;0.73;0.70;;;;;;;19.77;71.60;98914.59;5104578;28;20580;-83
2021/08/20 05:48:09;;;;;;;0.80;0.70;;;;;;;19.80;71.63;98912.41;5167190;27;20555;-82
2021/08/20 05:50:55;;;;;;;0.87;0.73;;;;;;;19.88;71.50;98919.72;5105428;28;20586;-83
2021/08/20 05:53:36;;;;;;;0.85;0.63;;;;;;;19.86;71.42;98905.59;5188956;27;1279730;-83
2021/08/20 05:56:19;;;;;;;0.77;0.77;;;;;;;19.99;71.21;98912.28;5105722;28;20951;-81
2021/08/20 05:59:02;;;;;;;1.00;0.90;;;;;;;20.03;71.28;98920.84;5167403;27;20558;-82
2021/08/20 06:01:45;;;;;;;1.10;1.00;;;;;;;19.96;71.00;98933.25;5169988;27;20559;-83
2021/08/20 06:04:29;;;;;;;0.80;0.80;;;;;;;19.91;71.44;98935.53;5107091;28;20586;-81
2021/08/20 06:07:12;;;;;;;0.77;0.70;;;;;;;19.81;72.10;98934.75;5150806;27;20574;-83
2021/08/20 06:09:55;;;;;;;1.07;1.00;;;;;;;19.71;72.57;98926.78;5107183;28;20558;-83
2021/08/20 06:12:38;;;;;;;0.80;0.80;;;;;;;19.78;72.76;98935.09;5106806;28;21055;-82
2021/08/20 06:15:20;;;;;;;0.87;0.87;;;;;;;19.82;72.70;98931.06;5168835;27;20524;-82
2021/08/20 06:18:02;;;;;;;1.07;1.07;;;;;;;19.86;73.64;98930.63;5168744;27;20547;-82
2021/08/20 06:20:44;;;;;;;1.00;0.90;;;;;;;19.91;72.91;98936.38;5188037;27;1283778;-82
2021/08/20 06:23:26;;;;;;;0.97;0.80;;;;;;;19.99;72.64;98935.63;5106882;28;20572;-81
2021/08/20 06:26:09;;;;;;;1.00;0.80;;;;;;;19.97;72.59;98927.72;5169218;27;20555;-81
2021/08/20 06:28:52;;;;;;;1.17;1.00;;;;;;;20.08;72.94;98942.75;5127537;27;21089;-80
2021/08/20 06:31:37;;;;;;;1.60;1.47;;;;;;;20.08;72.71;98937.38;5106136;28;21140;-79
2021/08/20 06:34:19;;;;;;;0.60;0.60;;;;;;;20.14;72.87;98935.94;5107116;28;20556;-80
2021/08/20 06:37:02;;;;;;;0.80;0.70;;;;;;;20.19;72.58;98939.84;5181524;27;20572;-80
2021/08/20 06:39:45;;;;;;;0.70;0.70;;;;;;;20.25;72.25;98944.63;5106676;28;20563;-80
2021/08/20 06:42:27;;;;;;;0.80;0.70;;;;;;;20.26;72.17;98937.38;5168532;27;20564;-80
2021/08/20 06:45:10;;;;;;;1.20;1.07;;;;;;;20.33;72.00;98947.34;5105665;28;20589;-81
2021/08/20 06:47:53;;;;;;;1.10;1.07;;;;;;;20.42;71.91;98954.53;5106332;28;20556;-81
2021/08/20 06:50:35;;;;;;;1.23;1.10;;;;;;;20.49;71.86;98953.91;5107086;28;20610;-79
2021/08/20 06:53:19;;;;;;;1.30;1.20;;;;;;;20.54;71.98;98954.28;5106031;28;20556;-81
2021/08/20 06:56:03;;;;;;;1.60;1.40;;;;;;;20.64;71.86;98955.03;5086794;28;20562;-80
2021/08/20 06:58:45;;;;;;;1.00;0.90;;;;;;;20.74;71.44;98950.41;5107943;28;20563;-81
2021/08/20 07:01:29;;;;;;;1.80;1.67;;;;;;;20.87;71.28;98950.81;5106553;28;20594;-81
2021/08/20 07:04:12;;;;;;;2.13;0.90;;;;;;;21.03;70.54;98945.53;5106166;28;20552;-81
2021/08/20 07:06:56;;;;;;;0.90;0.80;;;;;;;21.12;70.27;98931.13;5107136;28;20549;-80
2021/08/20 07:09:44;;;;;;;1.33;1.07;;;;;;;21.26;69.91;98945.84;5106227;28;21104;-81
2021/08/20 07:12:29;;;;;;;0.63;0.63;;;;;;;21.25;69.77;98954.09;5146028;27;20579;-81
2021/08/20 07:15:13;;;;;;;1.07;1.00;;;;;;;21.25;69.80;98954.09;5106108;27;20565;-80
2021/08/20 07:17:58;;;;;;;1.47;1.20;;;;;;;21.32;70.17;98952.44;5106857;28;20553;-79
2021/08/20 07:20:48;;;;;;;0.90;0.80;;;;;;;21.44;70.00;98949.28;5105874;28;20596;-80
2021/08/20 07:23:31;;;;;;;1.37;0.80;;;;;;;21.73;69.34;98948.88;5169299;27;20568;-80
2021/08/20 07:26:15;;;;;;;0.97;0.93;;;;;;;21.67;69.00;98938.75;5106278;28;20535;-81
2021/08/20 07:28:59;;;;;;;1.43;1.10;;;;;;;21.70;68.98;98964.53;5126707;27;20559;-81
2021/08/20 07:31:41;;;;;;;1.73;1.37;;;;;;;21.64;68.49;98944.47;5105736;28;21128;-81
2021/08/20 07:34:22;;;;;;;1.77;1.10;;;;;;;21.78;68.55;98956.47;5106325;28;21298;-81
2021/08/20 07:37:07;;;;;;;1.80;1.33;;;;;;;21.78;68.47;98960.00;5165669;27;20555;-82
2021/08/20 07:39:49;;;;;;;2.03;1.33;;;;;;;21.77;68.35;98958.31;5167880;27;20551;-80
2021/08/20 07:42:32;;;;;;;2.03;1.30;;;;;;;21.79;68.04;98952.75;5105563;28;21288;-81
2021/08/20 07:45:15;;;;;;;1.43;1.03;;;;;;;21.86;67.73;98943.88;5105803;28;20572;-82
2021/08/20 07:47:58;;;;;;;2.40;1.07;;;;;;;22.15;67.71;98954.22;5105947;28;21097;-81
2021/08/20 07:50:41;;;;;;;1.37;1.13;;;;;;;22.37;67.46;98960.00;5168438;27;21085;-81
2021/08/20 07:53:24;;;;;;;1.17;1.07;;;;;;;22.63;66.73;98968.72;5106996;28;20588;-81
2021/08/20 07:56:07;;;;;;;1.00;1.00;;;;;;;22.91;66.19;98972.78;5148047;27;20577;-81
2021/08/20 07:58:59;;;;;;;1.53;1.43;;;;;;;23.16;64.74;98960.06;5086426;28;20521;-81
2021/08/20 08:01:43;;;;;;;1.37;1.00;;;;;;;23.48;63.90;98969.94;5101155;28;20576;-82
2021/08/20 08:04:42;;;;;;;1.30;1.17;;;;;;;24.02;63.31;98961.91;5127826;27;20529;-81
2021/08/20 08:07:51;;;;;;;1.20;1.00;;;;;;;24.61;61.67;98979.25;5179843;27;20522;-81
2021/08/20 08:10:34;;;;;;;1.10;1.00;;;;;;;25.16;59.75;98991.63;4582853;27;18468834;-82
2021/08/20 08:13:32;;;;;;;1.30;1.20;;;;;;;25.41;58.93;98987.63;5127760;27;20530;-81
2021/08/20 08:16:28;;;;;;;1.20;1.10;;;;;;;25.70;58.54;98978.66;5126393;27;20530;-82
2021/08/20 08:19:28;;;;;;;1.70;1.40;;;;;;;25.98;57.18;98978.78;5157789;27;20626;-82
2021/08/20 08:22:36;;;;;;;1.13;1.03;;;;;;;26.13;56.71;98995.88;5179818;27;20522;-82
2021/08/20 08:25:36;;;;;;;1.37;1.27;;;;;;;26.50;56.09;99001.28;5231352;27;20524;-81
2021/08/20 08:28:33;;;;;;;1.80;1.43;;;;;;;27.05;54.44;99014.16;5127244;27;20906;-82
2021/08/20 08:31:29;;;;;;;1.87;1.37;;;;;;;27.18;52.49;98960.72;5085978;28;20529;-82
2021/08/20 08:34:32;;;;;;;1.80;1.70;;;;;;;27.51;53.37;99009.03;5170440;27;20566;-83
2021/08/20 08:37:32;;;;;;;1.33;1.23;;;;;;;28.01;52.29;99005.13;5232853;27;20658;-81
2021/08/20 08:40:29;;;;;;;1.83;1.60;;;;;;;29.01;49.16;99030.72;5127586;27;20937;-81
2021/08/20 08:43:27;;;;;;;1.70;1.60;;;;;;;30.07;45.93;99042.31;5107138;27;20530;-82
2021/08/20 08:46:24;;;;;;;1.67;1.57;;;;;;;30.15;44.73;99040.19;5127724;27;20521;-82
2021/08/20 08:49:08;;;;;;;2.40;1.50;;;;;;;30.41;44.88;99047.41;5126210;27;20592;-81
2021/08/20 08:51:51;;;;;;;1.43;1.33;;;;;;;31.00;43.88;99046.19;5169123;27;20579;-81
2021/08/20 08:54:32;;;;;;;1.77;1.67;;;;;;;31.68;42.97;99048.97;5189379;27;1301008;-82
2021/08/20 08:57:18;;;;;;;1.63;1.50;;;;;;;31.69;40.55;99051.50;5168770;27;20582;-83
2021/08/20 09:00:01;;;;;;;1.97;1.73;;;;;;;31.27;40.40;99044.94;5148097;27;21075;-85
2021/08/20 09:02:47;;;;;;;2.37;1.50;;;;;;;30.74;41.83;99049.13;5189055;27;1301687;-82
2021/08/20 09:05:42;;;;;;;1.00;0.97;;;;;;;30.25;42.54;99043.28;5126420;27;20569;-83
2021/08/20 09:08:28;;;;;;;1.23;1.13;;;;;;;30.00;42.79;99020.50;5147606;27;20561;-83
2021/08/20 09:11:13;;;;;;;1.50;1.40;;;;;;;30.22;43.34;99035.50;5105798;28;20582;-82
2021/08/20 09:13:56;;;;;;;1.60;1.50;;;;;;;30.20;41.98;99040.34;5107335;28;20567;-82
2021/08/20 09:16:39;;;;;;;1.48;1.38;;;;;;;30.55;41.05;99061.84;5169744;27;1303128;-82
2021/08/20 09:19:24;;;;;;;1.30;1.20;;;;;;;31.90;39.29;99068.56;5168825;27;20560;-83
2021/08/20 09:22:12;;;;;;;1.13;1.03;;;;;;;32.64;37.34;99079.22;5168124;27;20576;-84
2021/08/20 09:24:57;;;;;;;1.33;1.10;;;;;;;32.89;36.11;99089.25;5126567;27;20563;-82
2021/08/20 09:27:41;;;;;;;1.40;1.30;;;;;;;33.01;35.80;99087.38;5107544;28;20566;-82
2021/08/20 09:30:25;;;;;;;1.43;1.10;;;;;;;33.01;35.43;99082.69;5106322;28;20552;-81
2021/08/20 09:33:16;;;;;;;1.03;1.00;;;;;;;33.67;34.37;99087.09;5105471;28;20564;-83
2021/08/20 09:36:14;;;;;;;1.30;1.10;;;;;;;34.68;32.12;99093.97;5106232;28;21042;-82
2021/08/20 09:38:57;;;;;;;1.37;1.20;;;;;;;34.30;32.57;99097.34;5169342;27;20555;-82
2021/08/20 09:41:44;;;;;;;0.90;0.90;;;;;;;33.46;33.94;99073.97;5107142;28;20582;-82
2021/08/20 09:44:29;;;;;;;1.40;1.30;;;;;;;32.64;34.58;99070.16;5147764;27;20565;-82
2021/08/20 09:47:12;;;;;;;1.23;1.13;;;;;;;32.21;35.63;99062.09;5126930;27;20838;-84
2021/08/20 09:49:58;;;;;;;1.23;1.13;;;;;;;32.00;36.11;99057.91;5107074;28;20558;-82
2021/08/20 09:52:41;;;;;;;1.60;1.10;;;;;;;31.61;36.10;99064.63;5106123;28;20590;-82
2021/08/20 09:55:48;;;;;;;1.27;1.17;;;;;;;31.08;36.66;99054.97;5169332;27;20562;-82
2021/08/20 09:58:35;;;;;;;0.97;0.87;;;;;;;30.79;37.61;99052.84;5168199;27;20572;-82
2021/08/20 10:01:18;;;;;;;0.83;0.83;;;;;;;30.45;38.29;99048.63;5105725;28;20556;-84
2021/08/20 10:04:01;;;;;;;0.83;0.83;;;;;;;30.03;39.24;99039.19;5106075;28;20568;-81
2021/08/20 10:06:45;;;;;;;1.13;1.13;;;;;;;29.79;39.96;99037.16;5105826;28;21095;-82
2021/08/20 10:09:30;;;;;;;1.13;1.03;;;;;;;29.59;38.64;99048.94;5118589;27;21103;-83
2021/08/20 10:12:18;;;;;;;1.13;1.03;;;;;;;29.37;38.99;99046.66;5139341;27;21032;-81
2021/08/20 10:15:01;;;;;;;1.00;0.77;;;;;;;29.23;39.33;99032.19;5106365;28;20566;-82
2021/08/20 10:17:31;;;;;;;0.77;0.77;;;;;;;29.31;40.29;99021.88;5106104;28;40071;-81
2021/08/20 10:20:00;;;;;;;0.80;0.80;;;;;;;29.37;39.31;99039.28;5106880;28;41784;-82
2021/08/20 10:22:30;;;;;;;1.17;1.00;;;;;;;29.16;39.29;99026.75;5085296;28;41713;-81
2021/08/20 10:24:59;;;;;;;0.90;0.90;;;;;;;29.29;39.94;99025.88;5085517;28;44365;-83
2021/08/20 10:27:27;;;;;;;1.13;1.03;;;;;;;29.50;39.34;99031.13;5086037;28;40055;-82
2021/08/20 10:29:55;;;;;;;0.90;0.90;;;;;;;29.86;37.90;99032.50;5128257;27;41979;-80
2021/08/20 10:32:25;;;;;;;0.77;0.77;;;;;;;30.29;36.90;99049.16;5089123;28;41961;-82
2021/08/20 10:34:52;;;;;;;0.90;0.90;;;;;;;31.11;36.19;99041.94;5139644;27;42278;-82
2021/08/20 10:37:27;;;;;;;1.03;1.00;;;;;;;32.28;35.18;99055.44;5087831;28;39225;-81
2021/08/20 10:39:57;;;;;;;1.00;1.00;;;;;;;33.28;33.34;99030.97;5106918;28;42819;-81
2021/08/20 10:42:36;;;;;;;1.10;0.97;;;;;;;34.28;32.10;99093.16;5105953;28;42921;-83
2021/08/20 10:45:20;;;;;;;0.90;0.90;;;;;;;33.89;30.74;99055.19;5168472;27;20573;-81
2021/08/20 10:48:15;;;;;;;1.03;1.03;;;;;;;34.43;32.28;99080.56;5106541;28;20586;-82
2021/08/20 10:50:59;;;;;;;0.73;0.73;;;;;;;35.22;29.16;99099.94;5106628;28;20552;-81
2021/08/20 10:53:49;;;;;;;0.93;0.87;;;;;;;35.59;29.29;99089.28;5112201;28;20524;-81
2021/08/20 10:56:35;;;;;;;1.20;1.20;;;;;;;36.02;28.90;99090.44;5142555;27;20602;-84
2021/08/20 10:59:56;;;;;;;1.13;1.07;;;;;;;36.63;28.26;99090.13;5123616;28;20603;-81
2021/08/20 11:02:53;;;;;;;0.90;0.90;;;;;;;36.87;28.12;99089.84;5142344;27;20586;-81
2021/08/20 11:05:50;;;;;;;1.03;1.03;;;;;;;37.14;27.46;99079.63;5155551;27;21367;-80
2021/08/20 11:08:38;;;;;;;0.80;0.57;;;;;;;37.61;26.62;99084.44;5124349;28;20592;-80
2021/08/20 11:11:45;;;;;;;0.70;0.70;;;;;;;37.95;26.44;99091.34;5113775;28;21162;-83
2021/08/20 11:14:32;;;;;;;0.97;0.93;;;;;;;37.90;26.18;99088.53;5107063;28;20559;-81
2021/08/20 11:17:15;;;;;;;0.73;0.73;;;;;;;37.57;27.30;99066.75;5148847;27;20541;-82
2021/08/20 11:20:18;;;;;;;1.10;1.00;;;;;;;37.47;26.48;99084.06;5107494;28;20528;-83
2021/08/20 11:23:16;;;;;;;0.87;0.87;;;;;;;37.48;27.26;99079.38;5106662;28;40542;-80
2021/08/20 11:25:58;;;;;;;0.67;0.67;;;;;;;36.94;28.14;99069.25;5140539;27;21124;-78
2021/08/20 11:28:42;;;;;;;1.30;1.20;;;;;;;36.40;27.85;99067.53;5148029;27;20553;-81
2021/08/20 11:31:25;;;;;;;0.70;0.70;;;;;;;35.65;28.61;99072.53;5105154;28;20594;-81
2021/08/20 11:34:05;;;;;;;0.80;0.80;;;;;;;35.51;28.54;99064.88;5088746;28;40403;-82
2021/08/20 11:36:32;;;;;;;1.10;1.03;;;;;;;36.30;27.96;99080.09;5084980;28;42792;-81
2021/08/20 11:39:01;;;;;;;0.70;0.70;;;;;;;36.87;27.94;99074.13;5084520;28;43993;-86
2021/08/20 11:41:36;;;;;;;0.77;0.77;;;;;;;37.17;27.09;99073.63;5086297;28;42412;-82
2021/08/20 11:44:08;;;;;;;0.73;0.73;;;;;;;37.07;26.88;99062.47;5068360;28;39881;-81
2021/08/20 11:46:39;;;;;;;0.90;0.90;;;;;;;37.67;26.67;99077.88;5086954;28;40672;-82
2021/08/20 11:49:07;;;;;;;1.10;0.90;;;;;;;38.44;25.70;99085.50;5087813;28;42761;-81
2021/08/20 11:51:38;;;;;;;0.90;0.90;;;;;;;38.75;24.43;99090.03;5105723;27;41339;-81
2021/08/20 11:54:07;;;;;;;1.13;1.00;;;;;;;38.87;25.10;99077.84;5121810;27;39387;-83
2021/08/20 11:56:36;;;;;;;0.82;0.82;;;;;;;39.33;25.09;99065.72;5125274;27;42016;-83
2021/08/20 11:59:12;;;;;;;0.85;0.85;;;;;;;39.84;23.40;99091.44;5085679;28;42819;-82
2021/08/20 12:01:41;;;;;;;1.00;0.90;;;;;;;40.13;22.45;99100.00;5085013;28;41983;-81
2021/08/20 12:04:09;;;;;;;0.80;0.80;;;;;;;40.25;22.06;99101.63;5084705;28;38737;-83
2021/08/20 12:06:38;;;;;;;0.98;0.85;;;;;;;40.61;22.41;99096.75;5080333;28;41091;-81
2021/08/20 12:09:11;;;;;;;0.70;0.70;;;;;;;41.36;20.94;99103.81;5104455;28;43795;-84
2021/08/20 12:11:42;;;;;;;1.13;1.05;;;;;;;41.77;21.11;99089.53;5079154;28;41233;-80
2021/08/20 12:14:17;;;;;;;0.80;0.80;;;;;;;42.84;20.72;99098.28;5067286;28;39041;-81
2021/08/20 12:16:48;;;;;;;0.80;0.70;;;;;;;44.16;18.52;99101.59;5085098;28;40717;-79
2021/08/20 12:19:19;;;;;;;0.73;0.70;;;;;;;45.06;18.05;99097.97;5067467;28;41816;-83
2021/08/20 12:21:48;;;;;;;0.70;0.70;;;;;;;45.41;17.62;99106.63;5094413;28;41460;-79
2021/08/20 12:24:29;;;;;;;0.70;0.70;;;;;;;46.24;17.15;99105.00;5104412;27;40323;-81
2021/08/20 12:27:10;;;;;;;1.25;0.95;;;;;;;45.51;17.05;99109.19;5104419;28;41571;-79
2021/08/20 12:29:38;;;;;;;0.60;0.60;;;;;;;43.37;18.67;99106.41;5084800;28;43520;-80
2021/08/20 12:32:08;;;;;;;0.70;0.70;;;;;;;41.31;20.37;99098.28;5085325;28;42341;-79
2021/08/20 12:34:37;;;;;;;0.90;0.90;;;;;;;39.61;21.89;99077.34;5083406;28;40665;-79
2021/08/20 12:37:07;;;;;;;1.00;0.90;;;;;;;38.79;22.76;99085.63;5084605;28;41080;-80
2021/08/20 12:39:37;;;;;;;1.27;1.17;;;;;;;38.61;22.54;99074.22;5083251;28;41609;-85